Time;durP1;ratioP1;P1;durP2;ratioP2;P2;SDS_P1;SDS_P2;PMS_P1;PMS_P2;Temp;Humidity;BMP_temperature;BMP_pressure;BME280_temperature;BME280_humidity;BME280_pressure;Samples;Min_cycle;Max_cycle;Signal;HPM_P1;HPM_P2
2022/04/04 00:00:36;;;;;;;;;;;;;;;19.18;42.85;100136.47;2082041;28;19959;-47
2022/04/04 00:01:37;;;;;;;;;;;;;;;19.18;42.83;100138.31;2082263;28;19978;-47
2022/04/04 00:02:37;;;;;;;;;;;;;;;19.18;42.77;100139.19;2078574;28;19967;-48
2022/04/04 00:03:38;;;;;;;;;;;;;;;19.17;42.85;100142.91;2083506;28;20429;-50
2022/04/04 00:04:38;;;;;;;;;;;;;;;19.16;42.76;100138.47;2079306;28;20761;-52
2022/04/04 00:05:39;;;;;;;;;;;;;;;19.16;42.78;100143.94;2079480;28;19924;-49
2022/04/04 00:06:40;;;;;;;;;;;;;;;19.17;42.86;100142.06;2085780;28;20588;-48
2022/04/04 00:07:40;;;;;;;;;;;;;;;19.16;42.87;100141.22;2080485;28;19913;-51
2022/04/04 00:08:40;;;;;;;;;;;;;;;19.16;42.84;100140.34;2082794;28;19925;-48
2022/04/04 00:09:40;;;;;;;;;;;;;;;19.17;42.84;100142.06;2083902;28;19973;-48
2022/04/04 00:10:41;;;;;;;;;;;;;;;19.16;42.91;100140.34;2081112;28;19921;-47
2022/04/04 00:11:41;;;;;;;;;;;;;;;19.15;42.87;100142.19;2083995;28;19916;-49
2022/04/04 00:12:41;;;;;;;;;;;;;;;19.14;42.82;100139.63;2080134;28;19931;-47
2022/04/04 00:13:42;;;;;;;;;;;;;;;19.13;42.88;100140.63;2081806;28;19946;-48
2022/04/04 00:14:43;;;;;;;;;;;;;;;19.12;42.83;100139.78;2078548;28;20033;-48
2022/04/04 00:15:43;;;;;;;;;;;;;;;19.12;42.98;100133.47;2081464;28;19920;-48
2022/04/04 00:16:44;;;;;;;;;;;;;;;19.11;43.05;100137.19;2085697;28;19967;-47
2022/04/04 00:17:45;;;;;;;;;;;;;;;19.09;42.96;100131.88;2082477;28;19975;-48
2022/04/04 00:18:45;;;;;;;;;;;;;;;19.08;43.02;100135.59;2082898;28;19921;-47
2022/04/04 00:19:46;;;;;;;;;;;;;;;19.09;43.04;100133.75;2081144;28;20273;-47
2022/04/04 00:20:46;;;;;;;;;;;;;;;19.07;43.00;100133.91;2081956;28;20362;-48
2022/04/04 00:21:46;;;;;;;;;;;;;;;19.07;43.00;100136.63;2078814;28;20424;-48
2022/04/04 00:22:46;;;;;;;;;;;;;;;19.06;43.06;100143.13;2081778;28;20181;-47
2022/04/04 00:23:47;;;;;;;;;;;;;;;19.05;43.08;100138.66;2077896;28;20330;-48
2022/04/04 00:24:47;;;;;;;;;;;;;;;19.04;43.09;100136.94;2082554;28;20277;-49
2022/04/04 00:25:48;;;;;;;;;;;;;;;19.05;43.07;100138.66;2082304;28;20275;-48
2022/04/04 00:26:48;;;;;;;;;;;;;;;19.05;43.14;100138.66;2078923;28;20199;-47
2022/04/04 00:27:50;;;;;;;;;;;;;;;19.04;43.09;100142.41;2079149;28;19920;-50
2022/04/04 00:28:51;;;;;;;;;;;;;;;19.03;43.18;100141.53;2082739;28;20333;-49
2022/04/04 00:29:51;;;;;;;;;;;;;;;19.03;43.05;100143.41;2082760;28;19926;-51
2022/04/04 00:30:51;;;;;;;;;;;;;;;19.03;43.17;100140.66;2081254;28;19923;-48
2022/04/04 00:31:52;;;;;;;;;;;;;;;19.04;43.10;100136.94;2080754;28;19921;-45
2022/04/04 00:32:52;;;;;;;;;;;;;;;19.02;43.10;100138.94;2084052;28;20037;-47
2022/04/04 00:33:53;;;;;;;;;;;;;;;19.03;43.06;100140.66;2077903;28;19925;-47
2022/04/04 00:34:53;;;;;;;;;;;;;;;19.03;43.04;100137.94;2080891;28;19920;-48
2022/04/04 00:35:53;;;;;;;;;;;;;;;19.02;43.09;100148.00;2082649;28;19920;-51
2022/04/04 00:36:54;;;;;;;;;;;;;;;19.01;43.12;100143.56;2081762;28;20243;-48
2022/04/04 00:37:54;;;;;;;;;;;;;;;19.00;43.14;100149.16;2077808;28;19921;-48
2022/04/04 00:38:54;;;;;;;;;;;;;;;19.01;43.15;100137.22;2082289;28;19955;-47
2022/04/04 00:39:55;;;;;;;;;;;;;;;18.99;43.07;100142.00;2098413;28;20296;-48
2022/04/04 00:40:55;;;;;;;;;;;;;;;19.00;43.18;100135.50;2088561;28;20326;-52
2022/04/04 00:41:56;;;;;;;;;;;;;;;18.99;43.13;100136.53;2081388;28;19923;-48
2022/04/04 00:42:56;;;;;;;;;;;;;;;18.98;43.16;100138.38;2080393;28;20024;-48
2022/04/04 00:43:57;;;;;;;;;;;;;;;18.97;43.13;100142.13;2081834;28;19932;-48
2022/04/04 00:44:57;;;;;;;;;;;;;;;18.98;43.16;100137.50;2078710;28;19913;-48
2022/04/04 00:45:59;;;;;;;;;;;;;;;18.97;43.21;100141.28;2081663;28;19927;-48
2022/04/04 00:47:00;;;;;;;;;;;;;;;18.96;43.23;100143.16;2078954;28;19916;-48
2022/04/04 00:48:00;;;;;;;;;;;;;;;18.93;43.26;100134.38;2081904;28;19925;-49
2022/04/04 00:49:00;;;;;;;;;;;;;;;18.94;43.35;100141.56;2083646;28;20463;-48
2022/04/04 00:50:01;;;;;;;;;;;;;;;18.94;43.46;100141.56;2079577;28;20739;-50
2022/04/04 00:51:02;;;;;;;;;;;;;;;18.92;43.26;100136.25;2082805;28;20329;-51
2022/04/04 00:52:02;;;;;;;;;;;;;;;18.91;43.34;100136.38;2082422;28;19968;-50
2022/04/04 00:53:03;;;;;;;;;;;;;;;18.91;43.28;100136.38;2079706;28;19928;-49
2022/04/04 00:54:03;;;;;;;;;;;;;;;18.90;43.35;100134.66;2085683;28;19920;-50
2022/04/04 00:55:06;;;;;;;;;;;;;;;18.89;43.36;100132.94;2083639;28;20323;-48
2022/04/04 00:56:07;;;;;;;;;;;;;;;18.89;43.48;100138.41;2080838;28;19995;-48
2022/04/04 00:57:08;;;;;;;;;;;;;;;18.87;43.54;100140.44;2080876;28;20425;-47
2022/04/04 00:58:09;;;;;;;;;;;;;;;18.87;43.47;100135.84;2083049;28;20341;-49
2022/04/04 00:59:13;;;;;;;;;;;;;;;18.86;43.42;100136.81;2082562;28;20256;-48
2022/04/04 01:00:14;;;;;;;;;;;;;;;18.85;43.47;100133.22;2081934;28;20030;-48
2022/04/04 01:01:15;;;;;;;;;;;;;;;18.84;43.41;100128.78;2083359;28;19916;-49
2022/04/04 01:02:15;;;;;;;;;;;;;;;18.84;43.57;100131.53;2081901;28;19921;-49
2022/04/04 01:03:16;;;;;;;;;;;;;;;18.84;43.46;100134.25;2079331;28;19959;-46
2022/04/04 01:04:16;;;;;;;;;;;;;;;18.84;43.55;100138.88;2077324;28;19920;-47
2022/04/04 01:05:17;;;;;;;;;;;;;;;18.84;43.54;100130.69;2081367;28;20546;-48
2022/04/04 01:06:17;;;;;;;;;;;;;;;18.83;43.65;100132.50;2081672;28;19924;-48
2022/04/04 01:07:17;;;;;;;;;;;;;;;18.83;43.51;100129.78;2081637;28;20528;-48
2022/04/04 01:08:18;;;;;;;;;;;;;;;18.82;43.51;100128.06;2077062;28;19927;-49
2022/04/04 01:09:18;;;;;;;;;;;;;;;18.82;43.44;100128.06;2082020;28;19930;-47
2022/04/04 01:10:19;;;;;;;;;;;;;;;18.81;43.58;100126.38;2083471;28;19920;-47
2022/04/04 01:11:19;;;;;;;;;;;;;;;18.81;43.65;100123.63;2084733;28;19921;-50
2022/04/04 01:12:22;;;;;;;;;;;;;;;18.81;43.63;100123.63;2083304;28;19925;-48
2022/04/04 01:13:23;;;;;;;;;;;;;;;18.81;43.53;100115.44;2079946;28;19931;-47
2022/04/04 01:14:23;;;;;;;;;;;;;;;18.82;43.50;100116.28;2082598;28;19919;-48
2022/04/04 01:15:26;;;;;;;;;;;;;;;18.81;43.44;100120.91;2079727;28;19952;-48
2022/04/04 01:16:26;;;;;;;;;;;;;;;18.81;43.65;100114.56;2081708;28;20437;-48
2022/04/04 01:17:27;;;;;;;;;;;;;;;18.80;43.52;100119.16;2083603;28;19953;-47
2022/04/04 01:18:27;;;;;;;;;;;;;;;18.81;43.58;100123.63;2080532;28;20057;-48
2022/04/04 01:19:27;;;;;;;;;;;;;;;18.82;43.56;100121.75;2083291;28;20080;-48
2022/04/04 01:20:28;;;;;;;;;;;;;;;18.81;43.64;100120.91;2080127;28;20026;-47
2022/04/04 01:21:28;;;;;;;;;;;;;;;18.80;43.62;100113.69;2081192;28;20405;-48
2022/04/04 01:22:28;;;;;;;;;;;;;;;18.81;43.66;100128.22;2079490;28;20045;-48
2022/04/04 01:23:34;;;;;;;;;;;;;;;18.80;43.53;100119.16;2078021;28;19955;-48
2022/04/04 01:24:34;;;;;;;;;;;;;;;18.79;43.57;100117.44;2081863;28;20323;-48
2022/04/04 01:25:35;;;;;;;;;;;;;;;18.79;43.68;100117.44;2081549;28;20244;-47
2022/04/04 01:26:35;;;;;;;;;;;;;;;18.79;43.60;100125.66;2080336;28;20361;-50
2022/04/04 01:27:36;;;;;;;;;;;;;;;18.79;43.67;100122.91;2092818;28;19942;-47
2022/04/04 01:28:37;;;;;;;;;;;;;;;18.79;43.67;100122.91;2094409;28;19958;-47
2022/04/04 01:29:38;;;;;;;;;;;;;;;18.78;43.80;100121.19;2081351;28;20265;-47
2022/04/04 01:30:38;;;;;;;;;;;;;;;18.78;43.79;100121.19;2081672;28;19920;-49
2022/04/04 01:31:39;;;;;;;;;;;;;;;18.77;43.78;100119.47;2079031;28;19960;-50
2022/04/04 01:32:39;;;;;;;;;;;;;;;18.78;43.74;100115.72;2085819;28;19927;-48
2022/04/04 01:33:39;;;;;;;;;;;;;;;18.79;43.68;100119.31;2084234;28;20306;-49
2022/04/04 01:34:40;;;;;;;;;;;;;;;18.78;43.64;100114.84;2081556;28;20179;-49
2022/04/04 01:35:40;;;;;;;;;;;;;;;18.77;43.75;100119.47;2078511;28;20034;-47
2022/04/04 01:36:41;;;;;;;;;;;;;;;18.78;43.74;100115.72;2078663;28;19921;-49
2022/04/04 01:37:41;;;;;;;;;;;;;;;18.77;43.74;100116.75;2079032;28;19924;-48
2022/04/04 01:38:41;;;;;;;;;;;;;;;18.77;43.59;100122.19;2081287;28;19920;-47
2022/04/04 01:39:42;;;;;;;;;;;;;;;18.77;43.68;100124.06;2079173;28;19920;-48
2022/04/04 01:40:42;;;;;;;;;;;;;;;18.77;43.61;100122.19;2080788;28;19974;-47
2022/04/04 01:41:43;;;;;;;;;;;;;;;18.75;43.79;100118.72;2082870;28;19921;-48
2022/04/04 01:42:46;;;;;;;;;;;;;;;18.75;43.75;100118.72;2082426;28;20148;-47
2022/04/04 01:43:47;;;;;;;;;;;;;;;18.74;43.65;100119.75;2080401;28;20031;-49
2022/04/04 01:44:47;;;;;;;;;;;;;;;18.75;43.82;100115.97;2081101;28;19921;-47
2022/04/04 01:47:07;;;;;;;;;;;;;;;18.74;43.74;100117.00;2082295;28;20340;-49
2022/04/04 01:48:08;;;;;;;;;;;;;;;18.73;43.76;100120.72;2082330;28;19917;-49
2022/04/04 01:49:09;;;;;;;;;;;;;;;18.72;43.82;100124.47;2082165;28;19913;-50
2022/04/04 01:50:09;;;;;;;;;;;;;;;18.70;43.75;100123.75;2083389;28;19927;-49
2022/04/04 01:51:10;;;;;;;;;;;;;;;18.70;43.88;100123.75;2076412;28;19928;-48
2022/04/04 01:52:10;;;;;;;;;;;;;;;18.70;43.85;100118.28;2081743;28;19982;-51
2022/04/04 01:53:25;;;;;;;;;;;;;;;18.68;43.87;100114.00;2082760;28;20276;-49
2022/04/04 01:54:25;;;;;;;;;;;;;;;18.67;44.01;100113.13;2083400;28;20408;-48
2022/04/04 01:55:26;;;;;;;;;;;;;;;18.67;43.88;100124.06;2083106;28;20357;-48
2022/04/04 01:56:27;;;;;;;;;;;;;;;18.66;43.91;100122.31;2083921;28;19942;-49
2022/04/04 01:57:27;;;;;;;;;;;;;;;18.64;43.98;100114.28;2083390;28;19921;-48
2022/04/04 01:58:28;;;;;;;;;;;;;;;18.63;44.12;100117.16;2083551;28;19943;-49
2022/04/04 01:59:28;;;;;;;;;;;;;;;18.63;43.90;100123.47;2086032;28;19921;-48
2022/04/04 02:00:30;;;;;;;;;;;;;;;18.63;43.98;100117.16;2078980;28;19924;-49
2022/04/04 02:01:34;;;;;;;;;;;;;;;18.62;43.95;100112.72;2081284;28;20034;-47
2022/04/04 02:02:35;;;;;;;;;;;;;;;18.61;44.07;100113.72;2080721;28;19955;-50
2022/04/04 02:03:36;;;;;;;;;;;;;;;18.61;44.14;100113.72;2079804;28;19924;-48
2022/04/04 02:04:36;;;;;;;;;;;;;;;18.61;44.06;100108.25;2084330;28;20302;-51
2022/04/04 02:05:37;;;;;;;;;;;;;;;18.61;43.95;100119.16;2082504;28;20221;-48
2022/04/04 02:06:37;;;;;;;;;;;;;;;18.60;44.04;100112.84;2083058;28;19927;-49
2022/04/04 02:07:38;;;;;;;;;;;;;;;18.60;44.12;100112.00;2080257;28;20264;-48
2022/04/04 02:08:38;;;;;;;;;;;;;;;18.61;43.99;100110.97;2081077;28;19920;-48
2022/04/04 02:09:39;;;;;;;;;;;;;;;18.60;44.17;100112.84;2084566;28;19908;-49
2022/04/04 02:10:39;;;;;;;;;;;;;;;18.60;44.06;100110.13;2095319;28;19911;-48
2022/04/04 02:11:40;;;;;;;;;;;;;;;18.58;44.19;100103.94;2091816;28;20396;-50
2022/04/04 02:12:40;;;;;;;;;;;;;;;18.59;44.00;100104.81;2089544;28;19947;-48
2022/04/04 02:13:41;;;;;;;;;;;;;;;18.59;44.13;100108.41;2080460;28;19929;-50
2022/04/04 02:14:42;;;;;;;;;;;;;;;18.59;44.18;100104.81;2079550;28;19926;-48
2022/04/04 02:15:42;;;;;;;;;;;;;;;18.58;44.23;100103.09;2082804;28;20199;-48
2022/04/04 02:16:43;;;;;;;;;;;;;;;18.57;44.19;100112.25;2083229;28;19920;-49
2022/04/04 02:17:44;;;;;;;;;;;;;;;18.56;44.08;100105.94;2084086;28;20658;-48
2022/04/04 02:18:45;;;;;;;;;;;;;;;18.55;44.28;100104.25;2083671;28;20862;-49
2022/04/04 02:19:47;;;;;;;;;;;;;;;18.56;44.15;100105.09;2084330;28;19920;-48
2022/04/04 02:20:48;;;;;;;;;;;;;;;18.54;44.01;100112.56;2080638;28;19986;-48
2022/04/04 02:21:48;;;;;;;;;;;;;;;18.53;44.09;100105.41;2082330;28;19920;-49
2022/04/04 02:22:49;;;;;;;;;;;;;;;18.54;44.17;100098.91;2082538;28;19957;-51
2022/04/04 02:23:51;;;;;;;;;;;;;;;18.52;44.18;100104.53;2078483;28;19921;-48
2022/04/04 02:24:51;;;;;;;;;;;;;;;18.51;44.24;100102.81;2085160;28;19947;-50
2022/04/04 02:25:53;;;;;;;;;;;;;;;18.51;44.23;100099.22;2082356;28;19920;-48
2022/04/04 02:26:53;;;;;;;;;;;;;;;18.50;44.28;100105.69;2085711;28;19935;-50
2022/04/04 02:27:54;;;;;;;;;;;;;;;18.50;44.30;100102.97;2080272;28;20801;-46
2022/04/04 02:28:54;;;;;;;;;;;;;;;18.49;44.33;100098.50;2083789;28;20372;-47
2022/04/04 02:29:55;;;;;;;;;;;;;;;18.49;44.40;100102.09;2083466;28;19920;-48
2022/04/04 02:30:56;;;;;;;;;;;;;;;18.48;44.40;100103.09;2080388;28;20328;-48
2022/04/04 02:31:56;;;;;;;;;;;;;;;18.47;44.50;100109.59;2078893;28;19921;-48
2022/04/04 02:32:56;;;;;;;;;;;;;;;18.47;44.51;100095.94;2084276;28;20341;-48
2022/04/04 02:33:56;;;;;;;;;;;;;;;18.47;44.32;100101.41;2081907;28;20105;-50
2022/04/04 02:34:57;;;;;;;;;;;;;;;18.47;44.43;100100.50;2081928;28;19924;-47
2022/04/04 02:35:57;;;;;;;;;;;;;;;18.47;44.48;100097.78;2082206;28;20342;-50
2022/04/04 02:36:58;;;;;;;;;;;;;;;18.48;44.38;100094.06;2079608;28;19920;-49
2022/04/04 02:37:59;;;;;;;;;;;;;;;18.47;44.25;100092.31;2088651;28;19920;-48
2022/04/04 02:39:00;;;;;;;;;;;;;;;18.48;44.53;100096.78;2082604;28;20804;-49
2022/04/04 02:40:00;;;;;;;;;;;;;;;18.48;44.28;100091.34;2082025;28;20291;-47
2022/04/04 02:41:01;;;;;;;;;;;;;;;18.48;44.46;100099.53;2083494;28;19943;-47
2022/04/04 02:42:01;;;;;;;;;;;;;;;18.48;44.32;100096.78;2082443;28;19951;-48
2022/04/04 02:43:02;;;;;;;;;;;;;;;18.49;44.25;100098.50;2082212;28;20331;-47
2022/04/04 02:44:02;;;;;;;;;;;;;;;18.50;44.45;100097.50;2085047;28;19982;-47
2022/04/04 02:45:03;;;;;;;;;;;;;;;18.50;44.33;100094.78;2082283;28;19928;-48
2022/04/04 02:46:03;;;;;;;;;;;;;;;18.51;44.30;100096.50;2079694;28;20094;-48
2022/04/04 02:47:03;;;;;;;;;;;;;;;18.51;44.37;100099.22;2080794;28;20344;-47
2022/04/04 02:48:04;;;;;;;;;;;;;;;18.51;44.35;100091.03;2098393;28;19921;-51
2022/04/04 02:49:05;;;;;;;;;;;;;;;18.51;44.29;100096.50;2098128;28;19916;-48
2022/04/04 02:50:05;;;;;;;;;;;;;;;18.51;44.27;100096.50;2082936;28;19926;-49
2022/04/04 02:51:07;;;;;;;;;;;;;;;18.50;44.24;100089.31;2083435;28;20734;-47
2022/04/04 02:52:07;;;;;;;;;;;;;;;18.48;44.36;100089.47;2081092;28;20137;-51
2022/04/04 02:53:08;;;;;;;;;;;;;;;18.49;44.49;100093.03;2082944;28;19920;-50
2022/04/04 02:54:08;;;;;;;;;;;;;;;18.48;44.48;100086.72;2078185;28;19920;-49
2022/04/04 02:56:30;;;;;;;;;;;;;;;18.46;44.26;100088.72;2084867;28;20015;-49
2022/04/04 02:57:31;;;;;;;;;;;;;;;18.47;44.35;100090.47;2080561;28;20701;-50
2022/04/04 02:58:31;;;;;;;;;;;;;;;18.46;44.32;100083.28;2083430;28;19920;-51
2022/04/04 02:59:31;;;;;;;;;;;;;;;18.45;44.53;100088.88;2079695;28;20368;-48
2022/04/04 03:00:32;;;;;;;;;;;;;;;18.43;44.42;100084.44;2076993;28;19920;-49
2022/04/04 03:01:32;;;;;;;;;;;;;;;18.45;44.38;100083.41;2080676;28;19952;-48
2022/04/04 03:02:32;;;;;;;;;;;;;;;18.44;44.32;100082.56;2082327;28;19921;-49
2022/04/04 03:03:33;;;;;;;;;;;;;;;18.43;44.46;100083.56;2083433;28;19913;-48
2022/04/04 03:04:34;;;;;;;;;;;;;;;18.43;44.54;100083.56;2077717;28;19948;-49
2022/04/04 03:05:35;;;;;;;;;;;;;;;18.42;44.38;100082.72;2081316;28;19927;-48
2022/04/04 03:06:36;;;;;;;;;;;;;;;18.42;44.40;100088.19;2083490;28;19920;-47
2022/04/04 03:07:36;;;;;;;;;;;;;;;18.42;44.37;100088.19;2082735;28;19943;-48
2022/04/04 03:08:37;;;;;;;;;;;;;;;18.42;44.32;100088.19;2084850;28;19947;-48
2022/04/04 03:09:37;;;;;;;;;;;;;;;18.42;44.62;100082.72;2098759;28;19919;-48
2022/04/04 03:10:38;;;;;;;;;;;;;;;18.41;44.28;100086.44;2100685;27;20284;-48
2022/04/04 03:11:39;;;;;;;;;;;;;;;18.41;44.37;100080.13;2084382;28;19974;-50
2022/04/04 03:12:40;;;;;;;;;;;;;;;18.41;44.29;100085.59;2076581;28;19929;-49
2022/04/04 03:13:41;;;;;;;;;;;;;;;18.42;44.53;100077.25;2084505;28;20258;-48
2022/04/04 03:14:41;;;;;;;;;;;;;;;18.41;44.50;100075.53;2079413;28;20015;-49
2022/04/04 03:15:41;;;;;;;;;;;;;;;18.39;44.42;100074.81;2083353;28;20136;-48
2022/04/04 03:16:41;;;;;;;;;;;;;;;18.39;44.46;100074.81;2084537;28;20835;-47
2022/04/04 03:17:43;;;;;;;;;;;;;;;18.38;44.35;100075.81;2081604;28;20417;-48
2022/04/04 03:18:43;;;;;;;;;;;;;;;18.38;44.61;100075.81;2083430;28;19920;-51
2022/04/04 03:19:43;;;;;;;;;;;;;;;18.36;44.50;100069.66;2078634;28;19991;-51
2022/04/04 03:20:44;;;;;;;;;;;;;;;18.34;44.41;100068.91;2083197;28;20377;-47
2022/04/04 03:21:44;;;;;;;;;;;;;;;18.35;44.51;100069.81;2080033;28;19920;-50
2022/04/04 03:22:46;;;;;;;;;;;;;;;18.35;44.56;100069.81;2079545;28;19963;-48
2022/04/04 03:23:46;;;;;;;;;;;;;;;18.33;44.70;100069.94;2083102;28;20031;-51
2022/04/04 03:24:46;;;;;;;;;;;;;;;18.32;44.59;100070.94;2083282;28;19918;-47
2022/04/04 03:25:47;;;;;;;;;;;;;;;18.32;44.68;100076.38;2080067;28;19913;-49
2022/04/04 03:26:47;;;;;;;;;;;;;;;18.32;44.57;100059.16;2080652;28;20554;-48
2022/04/04 03:27:48;;;;;;;;;;;;;;;18.31;44.68;100071.94;2079162;28;19916;-47
2022/04/04 03:28:48;;;;;;;;;;;;;;;18.30;44.65;100067.50;2078718;28;19912;-50
2022/04/04 03:29:48;;;;;;;;;;;;;;;18.29;44.73;100065.78;2080527;28;19909;-49
2022/04/04 03:30:49;;;;;;;;;;;;;;;18.28;44.76;100058.59;2083756;28;19967;-48
2022/04/04 03:31:49;;;;;;;;;;;;;;;18.28;44.60;100058.59;2081617;28;19905;-51
2022/04/04 03:32:50;;;;;;;;;;;;;;;18.26;44.62;100066.06;2088135;28;19916;-48
2022/04/04 03:33:50;;;;;;;;;;;;;;;18.27;44.65;100065.06;2082359;28;19924;-48
2022/04/04 03:34:51;;;;;;;;;;;;;;;18.26;44.69;100063.34;2083643;28;20735;-48
2022/04/04 03:35:51;;;;;;;;;;;;;;;18.27;44.74;100059.59;2077854;28;20398;-47
2022/04/04 03:36:52;;;;;;;;;;;;;;;18.27;44.52;100062.31;2083078;28;19912;-52
2022/04/04 03:37:53;;;;;;;;;;;;;;;18.26;44.60;100060.63;2084700;28;20403;-48
2022/04/04 03:38:53;;;;;;;;;;;;;;;18.27;44.58;100056.88;2082403;28;20121;-50
2022/04/04 03:39:53;;;;;;;;;;;;;;;18.28;44.73;100057.75;2071267;28;20190;-47
2022/04/04 03:40:54;;;;;;;;;;;;;;;18.27;44.70;100059.59;2081090;28;20195;-48
2022/04/04 03:41:54;;;;;;;;;;;;;;;18.27;44.64;100059.59;2081730;28;19977;-49
2022/04/04 03:42:56;;;;;;;;;;;;;;;18.26;44.63;100060.63;2077285;28;20246;-49
2022/04/04 03:43:56;;;;;;;;;;;;;;;18.26;44.69;100060.63;2080751;28;19920;-48
2022/04/04 03:44:57;;;;;;;;;;;;;;;18.26;44.73;100063.34;2082020;28;19943;-47
2022/04/04 03:45:57;;;;;;;;;;;;;;;18.27;44.73;100064.19;2079696;28;20110;-50
2022/04/04 03:46:57;;;;;;;;;;;;;;;18.26;44.74;100063.34;2080003;28;20091;-50
2022/04/04 03:47:58;;;;;;;;;;;;;;;18.25;44.49;100067.09;2083192;28;20250;-49
2022/04/04 03:48:58;;;;;;;;;;;;;;;18.26;44.67;100063.34;2078548;28;19921;-48
2022/04/04 03:49:59;;;;;;;;;;;;;;;18.26;44.72;100060.63;2081605;28;19930;-49
2022/04/04 03:50:59;;;;;;;;;;;;;;;18.26;44.75;100057.88;2084369;28;19920;-47
2022/04/04 03:52:00;;;;;;;;;;;;;;;18.26;44.80;100060.63;2077844;28;19921;-49
2022/04/04 03:53:01;;;;;;;;;;;;;;;18.27;44.81;100066.94;2082585;28;19956;-50
2022/04/04 03:54:01;;;;;;;;;;;;;;;18.26;44.70;100065.22;2081108;28;19950;-48
2022/04/04 03:55:02;;;;;;;;;;;;;;;18.26;44.64;100060.63;2080582;28;19924;-49
2022/04/04 03:56:03;;;;;;;;;;;;;;;18.25;44.66;100064.38;2083197;28;20831;-50
2022/04/04 03:57:04;;;;;;;;;;;;;;;18.25;44.84;100066.22;2077938;28;19966;-49
2022/04/04 03:58:04;;;;;;;;;;;;;;;18.25;44.62;100064.38;2084038;28;19959;-48
2022/04/04 03:59:05;;;;;;;;;;;;;;;18.25;44.66;100075.28;2078226;28;19951;-47
2022/04/04 04:00:06;;;;;;;;;;;;;;;18.25;44.78;100064.38;2081567;28;19916;-48
2022/04/04 04:01:07;;;;;;;;;;;;;;;18.25;44.88;100061.63;2084046;28;19944;-47
2022/04/04 04:02:07;;;;;;;;;;;;;;;18.26;44.84;100065.22;2081127;28;19960;-49
2022/04/04 04:03:08;;;;;;;;;;;;;;;18.25;44.94;100069.81;2078903;28;20561;-48
2022/04/04 04:04:08;;;;;;;;;;;;;;;18.24;44.84;100062.63;2080010;28;20235;-47
2022/04/04 04:05:09;;;;;;;;;;;;;;;18.25;44.84;100060.75;2083074;28;19918;-49
2022/04/04 04:06:12;;;;;;;;;;;;;;;18.25;44.65;100069.81;2082433;28;20292;-48
2022/04/04 04:07:15;;;;;;;;;;;;;;;18.25;44.82;100069.81;2080721;28;19920;-47
2022/04/04 04:08:16;;;;;;;;;;;;;;;18.25;44.90;100067.09;2080506;28;19921;-49
2022/04/04 04:09:16;;;;;;;;;;;;;;;18.26;44.67;100067.94;2089656;28;20356;-50
2022/04/04 04:10:17;;;;;;;;;;;;;;;18.26;44.83;100076.97;2083956;28;19920;-47
2022/04/04 04:11:18;;;;;;;;;;;;;;;18.26;44.85;100074.25;2085646;28;19990;-50
2022/04/04 04:12:20;;;;;;;;;;;;;;;18.26;44.75;100082.44;2079079;28;19920;-48
2022/04/04 04:13:21;;;;;;;;;;;;;;;18.25;44.65;100086.19;2083601;28;20271;-48
2022/04/04 04:14:22;;;;;;;;;;;;;;;18.26;44.78;100076.97;2077571;28;19921;-48
2022/04/04 04:15:23;;;;;;;;;;;;;;;18.26;44.82;100079.72;2076550;28;20542;-48
2022/04/04 04:16:23;;;;;;;;;;;;;;;18.26;44.80;100076.13;2078182;28;19912;-50
2022/04/04 04:17:24;;;;;;;;;;;;;;;18.25;44.73;100077.13;2082579;28;19959;-50
2022/04/04 04:18:25;;;;;;;;;;;;;;;18.24;44.74;100081.72;2078519;28;20051;-48
2022/04/04 04:20:44;;;;;;;;;;;;;;;18.21;44.73;100080.16;2083317;28;20239;-48
2022/04/04 04:21:44;;;;;;;;;;;;;;;18.22;44.64;100083.72;2083679;28;19912;-50
2022/04/04 04:22:58;;;;;;;;;;;;;;;18.21;44.61;100082.88;2081346;28;19921;-50
2022/04/04 04:23:59;;;;;;;;;;;;;;;18.20;44.87;100080.28;2077695;28;19974;-49
2022/04/04 04:25:00;;;;;;;;;;;;;;;18.19;44.94;100082.16;2078877;28;20308;-48
2022/04/04 04:26:00;;;;;;;;;;;;;;;18.19;44.65;100082.16;2078943;28;19956;-48
2022/04/04 04:27:01;;;;;;;;;;;;;;;18.18;44.89;100079.59;2081620;28;19921;-50
2022/04/04 04:28:02;;;;;;;;;;;;;;;18.18;44.70;100085.03;2082155;28;19927;-49
2022/04/04 04:29:02;;;;;;;;;;;;;;;18.17;44.94;100086.88;2080528;28;19959;-49
2022/04/04 04:30:03;;;;;;;;;;;;;;;18.16;44.95;100082.44;2082341;28;20156;-48
2022/04/04 04:31:03;;;;;;;;;;;;;;;18.16;44.95;100087.91;2076934;28;20370;-47
2022/04/04 04:32:04;;;;;;;;;;;;;;;18.15;44.99;100091.66;2081055;28;19956;-47
2022/04/04 04:33:04;;;;;;;;;;;;;;;18.14;44.89;100083.59;2081701;28;20387;-47
2022/04/04 04:34:05;;;;;;;;;;;;;;;18.14;45.03;100083.59;2083465;28;19939;-48
2022/04/04 04:35:06;;;;;;;;;;;;;;;18.13;44.99;100090.94;2079405;28;20250;-47
2022/04/04 04:36:07;;;;;;;;;;;;;;;18.16;44.87;100087.03;2080420;28;19959;-49
2022/04/04 04:37:08;;;;;;;;;;;;;;;18.17;44.92;100089.63;2076001;28;20144;-53
2022/04/04 04:38:08;;;;;;;;;;;;;;;18.19;44.86;100087.59;2082198;28;19921;-47
2022/04/04 04:39:08;;;;;;;;;;;;;;;18.18;45.00;100085.03;2080714;28;19928;-47
2022/04/04 04:40:09;;;;;;;;;;;;;;;18.16;44.96;100087.91;2077891;28;19959;-51
2022/04/04 04:41:09;;;;;;;;;;;;;;;18.15;45.29;100090.75;2078103;28;19916;-51
2022/04/04 04:42:10;;;;;;;;;;;;;;;18.14;45.23;100089.06;2082416;28;20159;-50
2022/04/04 04:43:10;;;;;;;;;;;;;;;18.14;44.96;100095.38;2081873;28;19995;-47
2022/04/04 04:44:11;;;;;;;;;;;;;;;18.15;44.89;100090.75;2081138;28;20284;-48
2022/04/04 04:45:11;;;;;;;;;;;;;;;18.16;44.93;100092.50;2079536;28;20010;-48
2022/04/04 04:46:12;;;;;;;;;;;;;;;18.16;45.08;100097.97;2080036;28;20126;-47
2022/04/04 04:47:14;;;;;;;;;;;;;;;18.15;45.02;100096.22;2078594;28;19952;-47
2022/04/04 04:48:14;;;;;;;;;;;;;;;18.15;44.99;100105.28;2082028;28;19920;-47
2022/04/04 04:49:15;;;;;;;;;;;;;;;18.15;45.13;100097.09;2080555;28;20190;-47
2022/04/04 04:50:16;;;;;;;;;;;;;;;18.15;45.10;100097.09;2079657;28;19943;-50
2022/04/04 04:51:17;;;;;;;;;;;;;;;18.14;45.06;100100.81;2079050;28;20504;-50
2022/04/04 04:52:17;;;;;;;;;;;;;;;18.15;45.15;100101.69;2076550;28;19916;-50
2022/04/04 04:53:18;;;;;;;;;;;;;;;18.14;45.13;100105.44;2078588;28;19925;-47
2022/04/04 04:54:18;;;;;;;;;;;;;;;18.14;45.07;100100.81;2077386;28;20031;-48
2022/04/04 04:55:20;;;;;;;;;;;;;;;18.14;45.22;100094.50;2075472;28;20658;-48
2022/04/04 04:56:21;;;;;;;;;;;;;;;18.13;45.03;100095.53;2079453;28;19950;-51
2022/04/04 04:57:22;;;;;;;;;;;;;;;18.15;45.03;100101.69;2077716;28;19912;-49
2022/04/04 04:58:22;;;;;;;;;;;;;;;18.15;45.05;100104.41;2080254;28;19996;-48
2022/04/04 04:59:23;;;;;;;;;;;;;;;18.14;44.83;100099.97;2079129;28;19928;-48
2022/04/04 05:00:26;;;;;;;;;;;;;;;18.15;44.83;100102.56;2088901;28;20204;-48
2022/04/04 05:01:26;;;;;;;;;;;;;;;18.16;44.94;100106.16;2084908;28;19913;-48
2022/04/04 05:02:26;;;;;;;;;;;;;;;18.17;44.87;100105.97;2078329;28;19964;-47
2022/04/04 05:03:27;;;;;;;;;;;;;;;18.18;44.84;100106.88;2080732;28;19974;-47
2022/04/04 05:04:27;;;;;;;;;;;;;;;18.19;44.61;100103.97;2080266;28;19965;-48
2022/04/04 05:05:27;;;;;;;;;;;;;;;18.21;44.60;100101.13;2077449;28;19909;-48
2022/04/04 05:06:28;;;;;;;;;;;;;;;18.26;44.49;100109.72;2078563;28;19925;-48
2022/04/04 05:07:28;;;;;;;;;;;;;;;18.29;44.40;100105.84;2080274;28;20003;-47
2022/04/04 05:08:30;;;;;;;;;;;;;;;18.32;44.16;100108.28;2078895;28;20243;-48
2022/04/04 05:09:31;;;;;;;;;;;;;;;18.37;44.23;100114.16;2081294;28;20770;-48
2022/04/04 05:10:31;;;;;;;;;;;;;;;18.41;44.01;100115.59;2082633;28;19913;-48
2022/04/04 05:11:31;;;;;;;;;;;;;;;18.45;44.08;100113.44;2079945;28;20002;-47
2022/04/04 05:12:32;;;;;;;;;;;;;;;18.47;43.85;100112.31;2080487;28;20464;-50
2022/04/04 05:13:32;;;;;;;;;;;;;;;18.50;43.81;100120.19;2078081;28;19925;-48
2022/04/04 05:14:32;;;;;;;;;;;;;;;18.52;43.62;100117.31;2079630;28;19924;-49
2022/04/04 05:15:33;;;;;;;;;;;;;;;18.56;43.51;100110.56;2080095;28;19921;-50